Time;durP1;ratioP1;P1;durP2;ratioP2;P2;SDS_P1;SDS_P2;PMS_P1;PMS_P2;Temp;Humidity;BMP_temperature;BMP_pressure;BME280_temperature;BME280_humidity;BME280_pressure;Samples;Min_cycle;Max_cycle;Signal;HPM_P1;HPM_P2
2023/06/16 03:01:28;;;;;;;16.50;11.98;;;14.50;99.90;;;;;;5555908;23;20141;-76
2023/06/16 03:03:56;;;;;;;18.27;12.93;;;14.40;99.90;;;;;;4995792;28;20057;-76
2023/06/16 03:06:22;;;;;;;18.90;12.30;;;14.40;99.90;;;;;;4997201;28;20069;-80
2023/06/16 03:08:48;;;;;;;18.90;13.07;;;14.30;99.90;;;;;;4996133;28;20042;-77
2023/06/16 03:11:15;;;;;;;17.08;12.70;;;14.30;99.90;;;;;;4995498;28;20042;-77
2023/06/16 03:13:41;;;;;;;17.50;12.98;;;14.30;99.90;;;;;;4996565;28;20046;-77
2023/06/16 03:16:07;;;;;;;19.70;13.68;;;14.40;99.90;;;;;;4996375;28;20042;-78
2023/06/16 03:18:33;;;;;;;17.88;13.15;;;14.30;99.90;;;;;;4996461;28;20054;-77
2023/06/16 03:21:01;;;;;;;17.00;13.93;;;14.30;99.90;;;;;;4995098;28;20050;-79
2023/06/16 03:23:27;;;;;;;18.55;13.98;;;14.30;99.90;;;;;;4996368;28;20450;-81
2023/06/16 03:25:53;;;;;;;17.85;14.07;;;14.20;99.90;;;;;;4996824;28;20038;-76
2023/06/16 03:28:19;;;;;;;18.52;13.90;;;14.20;99.90;;;;;;4995309;28;20505;-78
2023/06/16 03:30:45;;;;;;;16.65;12.68;;;14.20;99.90;;;;;;4996792;28;20046;-79
2023/06/16 03:33:11;;;;;;;18.60;14.52;;;14.10;99.90;;;;;;4996638;28;20034;-77
2023/06/16 03:35:36;;;;;;;20.48;13.27;;;14.10;99.90;;;;;;4995284;28;20375;-75
2023/06/16 03:38:02;;;;;;;17.55;14.40;;;14.20;99.90;;;;;;4994885;28;20413;-77
2023/06/16 03:40:28;;;;;;;19.25;12.77;;;14.10;99.90;;;;;;4994824;28;20097;-78
2023/06/16 03:42:54;;;;;;;22.23;15.20;;;14.20;99.90;;;;;;4978572;28;20038;-78
2023/06/16 03:45:19;;;;;;;23.23;16.08;;;14.20;99.90;;;;;;4995140;28;20085;-79
2023/06/16 03:47:45;;;;;;;18.10;14.05;;;14.30;99.90;;;;;;4994817;28;20058;-77
2023/06/16 03:50:10;;;;;;;22.38;16.08;;;14.30;99.90;;;;;;4995819;28;20073;-78
2023/06/16 03:52:36;;;;;;;20.58;16.45;;;14.30;99.90;;;;;;4995878;28;20052;-75
2023/06/16 03:55:03;;;;;;;23.77;18.23;;;14.30;99.90;;;;;;4996280;28;20066;-78
2023/06/16 03:57:28;;;;;;;30.45;19.85;;;14.30;99.90;;;;;;4994867;28;20129;-75
2023/06/16 03:59:54;;;;;;;26.00;18.60;;;14.30;99.90;;;;;;4994749;28;20134;-79
2023/06/16 04:02:20;;;;;;;26.33;18.90;;;14.30;99.90;;;;;;4994467;28;20089;-80
2023/06/16 04:04:47;;;;;;;27.05;19.30;;;14.20;99.90;;;;;;4995998;28;20065;-75
2023/06/16 04:07:13;;;;;;;25.75;20.33;;;14.30;99.90;;;;;;4995134;28;20096;-78
2023/06/16 04:09:38;;;;;;;27.70;20.65;;;14.30;99.90;;;;;;4996029;28;20453;-79
2023/06/16 04:12:05;;;;;;;29.90;22.65;;;14.30;99.90;;;;;;4994227;28;20150;-79
2023/06/16 04:14:30;;;;;;;28.90;20.25;;;14.30;99.90;;;;;;4995284;28;20402;-76
2023/06/16 04:16:56;;;;;;;27.52;21.80;;;14.30;99.90;;;;;;4994342;28;20042;-76
2023/06/16 04:19:22;;;;;;;29.48;22.80;;;14.30;99.90;;;;;;4995646;28;20042;-76
2023/06/16 04:21:47;;;;;;;33.00;23.05;;;14.40;99.90;;;;;;4995693;28;20073;-78
2023/06/16 04:24:14;;;;;;;33.42;23.73;;;14.40;99.90;;;;;;4994244;28;20438;-77
2023/06/16 04:26:41;;;;;;;28.13;22.70;;;14.40;99.90;;;;;;4995423;28;20042;-77
2023/06/16 04:29:08;;;;;;;29.38;22.58;;;14.40;99.90;;;;;;4994468;28;20042;-77
2023/06/16 04:31:35;;;;;;;29.65;22.88;;;14.50;99.90;;;;;;4995056;28;20379;-77
2023/06/16 04:34:04;;;;;;;28.88;22.20;;;14.50;99.90;;;;;;4993701;28;20052;-78
2023/06/16 04:36:30;;;;;;;27.83;22.30;;;14.60;99.90;;;;;;4995408;28;20041;-76
2023/06/16 04:38:58;;;;;;;31.33;23.58;;;14.60;99.90;;;;;;4994101;28;20046;-77
2023/06/16 04:41:23;;;;;;;33.67;25.60;;;14.60;99.90;;;;;;4995605;28;20398;-78
2023/06/16 04:43:49;;;;;;;34.38;25.70;;;14.50;99.90;;;;;;4993913;28;20046;-79
2023/06/16 04:46:15;;;;;;;29.50;23.13;;;14.50;99.90;;;;;;4995415;28;20064;-76
2023/06/16 04:48:41;;;;;;;34.13;24.63;;;14.50;99.90;;;;;;4995539;28;20419;-76
2023/06/16 04:51:07;;;;;;;32.40;24.83;;;14.50;99.90;;;;;;4995073;28;20043;-77
2023/06/16 04:53:33;;;;;;;32.78;25.30;;;14.50;99.90;;;;;;4995198;28;20121;-80
2023/06/16 04:55:58;;;;;;;27.80;23.17;;;14.50;99.90;;;;;;4993543;28;20121;-75
2023/06/16 04:58:24;;;;;;;29.00;23.95;;;14.60;99.90;;;;;;4995333;28;20049;-76
2023/06/16 05:00:50;;;;;;;29.65;23.73;;;14.60;99.90;;;;;;4993434;28;20088;-75
2023/06/16 05:03:16;;;;;;;30.55;25.33;;;14.60;99.90;;;;;;4993751;28;20039;-75
2023/06/16 05:05:43;;;;;;;34.90;25.73;;;14.70;99.90;;;;;;4993557;28;20510;-80
2023/06/16 05:08:11;;;;;;;33.03;25.50;;;14.70;99.90;;;;;;4993861;28;20096;-77
2023/06/16 05:10:38;;;;;;;35.67;25.25;;;14.80;99.90;;;;;;4994966;28;20125;-80
2023/06/16 05:13:03;;;;;;;34.70;26.60;;;14.80;99.90;;;;;;4994500;28;20093;-77
2023/06/16 05:15:29;;;;;;;35.70;26.63;;;14.80;99.90;;;;;;4994313;28;20397;-78
2023/06/16 05:17:55;;;;;;;31.60;25.45;;;14.90;99.90;;;;;;4994983;28;20046;-78
2023/06/16 05:20:20;;;;;;;34.75;27.13;;;14.90;99.90;;;;;;4992918;28;20042;-76
2023/06/16 05:22:46;;;;;;;35.13;26.55;;;15.00;99.90;;;;;;4993119;28;20042;-75
2023/06/16 05:25:12;;;;;;;34.65;26.48;;;15.00;99.90;;;;;;4994639;28;20065;-78
2023/06/16 05:27:37;;;;;;;40.47;28.80;;;15.10;99.90;;;;;;4993119;28;20074;-76
2023/06/16 05:30:03;;;;;;;36.47;27.13;;;15.10;99.90;;;;;;4993298;28;20046;-80
2023/06/16 05:32:29;;;;;;;35.80;28.45;;;15.20;99.90;;;;;;4992886;28;20053;-75
2023/06/16 05:34:56;;;;;;;39.80;28.67;;;15.20;99.90;;;;;;4992755;28;20038;-76
2023/06/16 05:37:22;;;;;;;40.13;26.35;;;15.30;99.90;;;;;;4993794;28;20077;-78
2023/06/16 05:39:49;;;;;;;36.47;27.58;;;15.40;99.90;;;;;;4993472;28;20106;-76
2023/06/16 05:42:15;;;;;;;40.20;27.85;;;15.50;99.90;;;;;;4992686;28;20132;-79
2023/06/16 05:44:42;;;;;;;42.75;28.23;;;15.50;99.90;;;;;;4993044;28;20125;-77
2023/06/16 05:47:08;;;;;;;40.95;28.10;;;15.60;99.90;;;;;;4993446;28;20502;-77
2023/06/16 05:49:34;;;;;;;39.38;27.08;;;15.60;99.90;;;;;;4994478;28;20069;-76
2023/06/16 05:52:01;;;;;;;40.92;27.10;;;15.70;99.90;;;;;;4994117;28;20133;-77
2023/06/16 05:54:30;;;;;;;37.33;25.17;;;15.70;99.90;;;;;;4994496;28;20058;-76
2023/06/16 05:56:56;;;;;;;46.00;26.00;;;15.80;99.90;;;;;;4994294;28;20244;-76
2023/06/16 05:59:22;;;;;;;35.15;25.48;;;15.80;99.90;;;;;;4993356;28;20121;-78
2023/06/16 06:01:49;;;;;;;36.67;25.35;;;15.90;99.90;;;;;;4992640;28;20074;-77
2023/06/16 06:04:15;;;;;;;33.83;23.50;;;15.90;99.90;;;;;;4976599;28;20581;-78
2023/06/16 06:06:40;;;;;;;35.28;24.10;;;16.00;99.90;;;;;;4992828;28;20070;-75
2023/06/16 06:09:06;;;;;;;27.63;22.88;;;16.00;99.90;;;;;;4992625;28;20394;-78
2023/06/16 06:11:32;;;;;;;30.98;24.48;;;16.10;99.90;;;;;;4994182;28;20060;-76
2023/06/16 06:13:57;;;;;;;30.33;23.80;;;16.20;99.90;;;;;;4994143;28;20066;-77
2023/06/16 06:16:23;;;;;;;29.02;23.55;;;16.20;99.90;;;;;;4992356;28;20046;-76
2023/06/16 06:18:49;;;;;;;27.48;23.42;;;16.30;99.90;;;;;;4994025;28;20081;-76
2023/06/16 06:21:15;;;;;;;28.40;22.33;;;16.40;99.90;;;;;;4992477;28;20403;-75
2023/06/16 06:23:41;;;;;;;30.27;22.15;;;16.40;99.90;;;;;;4992365;28;20053;-78
2023/06/16 06:26:07;;;;;;;28.27;20.80;;;16.50;99.90;;;;;;4992424;28;20397;-76
2023/06/16 06:28:32;;;;;;;29.30;21.38;;;16.50;99.90;;;;;;4994294;28;20466;-75
2023/06/16 06:30:58;;;;;;;25.05;19.85;;;16.60;99.90;;;;;;4992937;28;20047;-77
2023/06/16 06:33:24;;;;;;;26.83;19.92;;;16.60;99.90;;;;;;4992625;28;20050;-75
2023/06/16 06:35:50;;;;;;;28.42;20.83;;;16.70;99.90;;;;;;4993914;28;20049;-77
2023/06/16 06:38:15;;;;;;;25.13;20.42;;;16.70;99.90;;;;;;4994688;28;20065;-78
2023/06/16 06:40:41;;;;;;;24.90;20.23;;;16.80;99.90;;;;;;4993091;28;20053;-78
2023/06/16 06:43:06;;;;;;;24.58;18.75;;;16.80;99.90;;;;;;4976586;28;20061;-77
2023/06/16 06:45:32;;;;;;;25.73;19.85;;;16.80;99.90;;;;;;4992650;28;20047;-78
2023/06/16 06:47:58;;;;;;;26.63;19.45;;;16.80;99.90;;;;;;4992572;28;20052;-80
2023/06/16 06:50:23;;;;;;;23.23;17.95;;;16.90;99.90;;;;;;4996681;28;20117;-77
2023/06/16 06:52:49;;;;;;;25.20;18.90;;;17.00;99.90;;;;;;4997214;28;20086;-76
2023/06/16 06:55:15;;;;;;;20.92;17.20;;;17.10;99.90;;;;;;4997965;28;20053;-76
2023/06/16 06:57:42;;;;;;;21.63;17.35;;;17.20;99.90;;;;;;4996208;28;20112;-78
2023/06/16 07:00:08;;;;;;;22.08;16.65;;;17.30;99.90;;;;;;4996228;28;20429;-75
2023/06/16 07:02:35;;;;;;;22.70;16.10;;;17.40;99.90;;;;;;4995775;28;20438;-76
2023/06/16 07:05:02;;;;;;;19.90;15.32;;;17.50;99.90;;;;;;4997463;28;20046;-77
2023/06/16 07:07:28;;;;;;;22.77;16.95;;;17.60;99.90;;;;;;4995761;28;20085;-76
2023/06/16 07:09:53;;;;;;;21.70;16.98;;;17.60;99.90;;;;;;4997451;28;20042;-75
2023/06/16 07:12:19;;;;;;;16.67;13.98;;;17.80;99.90;;;;;;4996005;28;20498;-77
2023/06/16 07:14:46;;;;;;;19.85;14.05;;;17.90;99.90;;;;;;4995611;28;20038;-77
2023/06/16 07:17:12;;;;;;;18.58;14.48;;;17.90;99.90;;;;;;4995393;28;20042;-78
2023/06/16 07:19:38;;;;;;;18.00;14.43;;;17.90;99.90;;;;;;4995547;28;20105;-77
2023/06/16 07:22:05;;;;;;;17.13;13.40;;;18.00;99.90;;;;;;4995235;28;20070;-76
2023/06/16 07:24:31;;;;;;;21.42;13.90;;;18.10;99.90;;;;;;4995996;28;20043;-78
2023/06/16 07:26:59;;;;;;;18.30;12.25;;;18.30;99.90;;;;;;4979030;28;20046;-77
2023/06/16 07:29:25;;;;;;;14.73;12.65;;;18.40;99.90;;;;;;4996631;28;20096;-75
2023/06/16 07:31:51;;;;;;;14.25;11.30;;;18.50;99.90;;;;;;4995354;28;20042;-76
2023/06/16 07:34:17;;;;;;;17.42;11.90;;;18.50;99.90;;;;;;4995193;28;20504;-77
2023/06/16 07:36:43;;;;;;;13.80;11.70;;;18.60;99.90;;;;;;4996592;28;20054;-78
2023/06/16 07:39:08;;;;;;;16.42;10.90;;;18.70;99.90;;;;;;4994966;28;20048;-78
2023/06/16 07:41:34;;;;;;;12.20;9.57;;;18.70;99.90;;;;;;4996233;28;20038;-76
2023/06/16 07:44:00;;;;;;;15.30;10.18;;;18.90;99.90;;;;;;4997230;28;20035;-77
2023/06/16 07:46:25;;;;;;;14.63;9.88;;;18.90;99.90;;;;;;4994668;28;20054;-76
2023/06/16 07:48:51;;;;;;;12.13;10.30;;;19.10;99.90;;;;;;4995976;28;20070;-76
2023/06/16 07:51:17;;;;;;;10.25;8.70;;;19.10;99.90;;;;;;4995980;28;20045;-76
2023/06/16 07:53:42;;;;;;;12.13;9.18;;;19.20;99.90;;;;;;4995940;28;20169;-77
2023/06/16 07:56:09;;;;;;;12.35;9.10;;;19.40;99.90;;;;;;4996109;28;20037;-75
2023/06/16 07:58:38;;;;;;;10.82;8.55;;;19.40;99.90;;;;;;4995807;28;20038;-76
2023/06/16 08:01:04;;;;;;;13.38;9.38;;;19.50;99.90;;;;;;4994674;28;20121;-78
2023/06/16 08:03:33;;;;;;;11.85;8.70;;;19.60;99.90;;;;;;4994258;28;20502;-77
2023/06/16 08:05:59;;;;;;;10.98;8.80;;;19.70;99.90;;;;;;4994287;28;20058;-76
2023/06/16 08:08:28;;;;;;;10.82;8.30;;;19.60;99.90;;;;;;4994606;28;20512;-76
2023/06/16 08:10:56;;;;;;;10.77;7.80;;;19.80;99.90;;;;;;4993859;28;20037;-77
2023/06/16 08:13:22;;;;;;;10.90;8.10;;;19.90;99.90;;;;;;4996160;28;20125;-77
2023/06/16 08:15:47;;;;;;;10.48;8.52;;;20.00;99.90;;;;;;4995433;28;20038;-77
2023/06/16 08:18:13;;;;;;;13.07;7.75;;;20.10;99.90;;;;;;4995481;28;20117;-75
2023/06/16 08:20:39;;;;;;;9.77;7.18;;;20.20;99.90;;;;;;4995121;28;20034;-76
2023/06/16 08:23:04;;;;;;;10.77;7.53;;;20.20;99.90;;;;;;4994553;28;20042;-77
2023/06/16 08:25:30;;;;;;;8.52;7.35;;;20.30;99.90;;;;;;4977536;28;20042;-76
2023/06/16 08:27:56;;;;;;;11.10;6.97;;;20.40;99.90;;;;;;4994054;28;20039;-75
2023/06/16 08:30:22;;;;;;;11.05;7.80;;;20.40;99.90;;;;;;4995411;28;20506;-76
2023/06/16 08:32:48;;;;;;;11.38;8.20;;;20.50;99.90;;;;;;4995899;28;20073;-75
2023/06/16 08:35:14;;;;;;;12.00;8.68;;;20.70;99.90;;;;;;4994913;28;20159;-76
2023/06/16 08:37:40;;;;;;;13.15;7.95;;;20.70;99.90;;;;;;4993652;28;20089;-78
2023/06/16 08:40:08;;;;;;;9.70;6.68;;;20.80;99.90;;;;;;4995195;28;20046;-77
2023/06/16 08:42:37;;;;;;;9.68;7.35;;;20.90;99.90;;;;;;4993472;28;20117;-78
2023/06/16 08:45:03;;;;;;;9.32;7.30;;;21.10;99.90;;;;;;4993507;28;20050;-78
2023/06/16 08:47:29;;;;;;;13.23;7.55;;;21.10;99.90;;;;;;4993238;28;20049;-78
2023/06/16 08:49:56;;;;;;;9.57;6.93;;;21.20;99.90;;;;;;4993554;28;20046;-76
2023/06/16 08:52:25;;;;;;;9.10;6.75;;;21.30;99.90;;;;;;4994748;28;20042;-78
2023/06/16 08:54:57;;;;;;;9.70;7.40;;;21.40;99.90;;;;;;4994704;28;20390;-75
2023/06/16 08:57:24;;;;;;;9.40;6.70;;;21.50;99.90;;;;;;4993979;28;20068;-78
2023/06/16 08:59:55;;;;;;;10.10;6.93;;;21.50;99.90;;;;;;4994599;28;20042;-76
2023/06/16 09:02:21;;;;;;;9.93;6.18;;;21.70;99.90;;;;;;4992903;28;20042;-77
2023/06/16 09:04:47;;;;;;;11.98;7.13;;;21.80;99.90;;;;;;4994491;28;20043;-78
2023/06/16 09:07:19;;;;;;;8.25;6.18;;;21.90;99.90;;;;;;4993491;28;20556;-76
2023/06/16 09:09:45;;;;;;;8.32;6.00;;;21.90;99.90;;;;;;4993150;28;20121;-77
2023/06/16 09:12:11;;;;;;;7.38;6.03;;;22.00;99.90;;;;;;4992975;28;20425;-77
2023/06/16 09:14:38;;;;;;;12.45;5.88;;;22.20;99.90;;;;;;4994355;28;20405;-76
2023/06/16 09:17:05;;;;;;;11.23;6.00;;;22.20;99.90;;;;;;4994619;28;20097;-77
2023/06/16 09:19:46;;;;;;;10.48;5.53;;;22.30;99.90;;;;;;4993145;28;20082;-77
2023/06/16 09:22:16;;;;;;;8.98;5.30;;;22.30;99.90;;;;;;4976556;28;20058;-76
2023/06/16 09:24:42;;;;;;;8.82;5.32;;;22.30;99.90;;;;;;4992517;28;20401;-76
2023/06/16 09:27:08;;;;;;;8.27;5.90;;;22.40;99.90;;;;;;4993951;28;20038;-74
2023/06/16 09:29:36;;;;;;;11.00;5.95;;;22.50;99.90;;;;;;4992858;28;20061;-75
2023/06/16 09:32:09;;;;;;;8.23;5.50;;;22.50;99.90;;;;;;4976401;28;20050;-75
2023/06/16 09:34:36;;;;;;;10.57;5.82;;;22.60;99.90;;;;;;4994037;28;20042;-75
2023/06/16 09:37:05;;;;;;;7.68;5.43;;;22.70;99.90;;;;;;4992820;28;20054;-78
2023/06/16 09:39:31;;;;;;;9.93;5.78;;;22.80;99.90;;;;;;4992758;28;20050;-77
2023/06/16 09:41:58;;;;;;;6.55;4.82;;;22.90;99.90;;;;;;4992369;28;20038;-76
2023/06/16 09:44:26;;;;;;;7.57;5.15;;;23.10;99.90;;;;;;4992440;28;20046;-76
2023/06/16 09:46:53;;;;;;;8.82;4.95;;;23.10;99.90;;;;;;4992667;28;20042;-75
2023/06/16 09:49:24;;;;;;;6.85;5.00;;;23.20;99.90;;;;;;4993867;28;20046;-74
2023/06/16 09:51:57;;;;;;;7.05;4.68;;;23.20;99.90;;;;;;4993857;28;20046;-77
2023/06/16 09:54:25;;;;;;;7.78;5.20;;;23.20;99.90;;;;;;4992658;28;20508;-76
2023/06/16 09:56:51;;;;;;;7.93;4.25;;;23.30;99.90;;;;;;4992371;28;20046;-76
2023/06/16 09:59:17;;;;;;;6.65;4.78;;;23.40;99.90;;;;;;4993857;28;20034;-75
2023/06/16 10:01:46;;;;;;;6.78;4.47;;;23.50;99.90;;;;;;4992156;28;20050;-76
2023/06/16 10:04:15;;;;;;;6.50;4.30;;;23.50;99.90;;;;;;4992490;28;20049;-75
2023/06/16 10:06:51;;;;;;;7.32;4.20;;;23.40;99.90;;;;;;4992461;28;20061;-76
2023/06/16 10:09:20;;;;;;;7.20;4.05;;;23.50;99.90;;;;;;4993579;28;20046;-76
2023/06/16 10:11:48;;;;;;;6.30;3.92;;;23.70;99.40;;;;;;4992220;28;20050;-76
2023/06/16 10:14:17;;;;;;;6.15;4.15;;;23.90;99.20;;;;;;4993476;28;20050;-76
2023/06/16 10:16:44;;;;;;;6.95;3.80;;;23.90;98.30;;;;;;4992143;28;20447;-75
2023/06/16 10:19:12;;;;;;;7.15;4.43;;;23.90;97.00;;;;;;4992926;28;20095;-77
2023/06/16 10:21:40;;;;;;;6.95;3.70;;;23.90;96.20;;;;;;4992277;28;20057;-76
2023/06/16 10:24:07;;;;;;;6.93;3.70;;;24.00;96.10;;;;;;4993164;28;20088;-78
2023/06/16 10:26:33;;;;;;;6.28;3.70;;;24.10;95.30;;;;;;4997112;28;20486;-76
2023/06/16 10:28:59;;;;;;;4.60;3.50;;;24.10;94.70;;;;;;4997639;28;20045;-76
2023/06/16 10:31:27;;;;;;;4.78;3.05;;;24.20;94.20;;;;;;4995732;28;20058;-76
2023/06/16 10:33:58;;;;;;;8.48;3.33;;;24.30;93.80;;;;;;4995771;28;20046;-76
2023/06/16 10:36:38;;;;;;;5.43;3.00;;;24.40;93.00;;;;;;4995675;28;20042;-77
2023/06/16 10:39:10;;;;;;;5.63;3.40;;;24.60;93.50;;;;;;4995677;28;20050;-76
2023/06/16 10:41:58;;;;;;;4.10;2.90;;;24.70;91.60;;;;;;4995524;28;20038;-76
2023/06/16 10:44:29;;;;;;;5.80;3.20;;;24.80;92.90;;;;;;4997276;28;20038;-76
2023/06/16 10:47:10;;;;;;;4.57;3.08;;;24.90;91.30;;;;;;4995611;28;20053;-77
2023/06/16 10:49:57;;;;;;;5.32;3.17;;;24.90;91.60;;;;;;4997334;28;20053;-77
2023/06/16 10:52:29;;;;;;;10.05;3.10;;;25.10;90.70;;;;;;4995375;28;20038;-78
2023/06/16 10:54:56;;;;;;;6.70;3.03;;;25.10;90.40;;;;;;4979137;28;20134;-75
2023/06/16 10:57:25;;;;;;;7.93;3.78;;;25.10;90.00;;;;;;4996596;28;20502;-77
2023/06/16 10:59:50;;;;;;;5.00;2.83;;;25.10;87.20;;;;;;4995587;28;20081;-77
2023/06/16 11:02:34;;;;;;;6.10;3.13;;;25.20;87.40;;;;;;4996784;28;20498;-74
2023/06/16 11:05:12;;;;;;;5.63;3.40;;;25.20;85.10;;;;;;4997268;28;20093;-77
2023/06/16 11:07:42;;;;;;;5.93;2.95;;;25.10;85.10;;;;;;4995266;28;20394;-77
2023/06/16 11:10:16;;;;;;;4.82;3.47;;;25.40;87.10;;;;;;4996701;28;20046;-75
2023/06/16 11:12:43;;;;;;;3.55;2.80;;;25.50;83.30;;;;;;4995521;28;20053;-76
2023/06/16 11:15:10;;;;;;;5.68;2.97;;;25.40;82.50;;;;;;4994874;28;20490;-76
2023/06/16 11:17:35;;;;;;;6.70;2.90;;;25.20;81.50;;;;;;4995050;28;20054;-77
2023/06/16 11:20:06;;;;;;;3.67;2.55;;;25.20;80.20;;;;;;4996235;28;20045;-75
2023/06/16 11:22:32;;;;;;;6.43;2.88;;;25.30;81.30;;;;;;4994917;28;20455;-76
2023/06/16 11:24:59;;;;;;;5.80;3.05;;;25.50;82.90;;;;;;4995321;28;20077;-77
2023/06/16 11:27:30;;;;;;;3.75;2.90;;;25.60;81.90;;;;;;4994962;28;20041;-78
2023/06/16 11:29:57;;;;;;;5.80;3.08;;;25.80;81.00;;;;;;4996213;28;20100;-75
2023/06/16 11:32:32;;;;;;;7.78;3.00;;;25.70;79.60;;;;;;4994770;28;20097;-75
2023/06/16 11:35:00;;;;;;;6.20;3.00;;;25.80;80.40;;;;;;4994383;28;20057;-77
2023/06/16 11:37:49;;;;;;;6.18;3.00;;;25.90;79.10;;;;;;4994153;28;20548;-76
2023/06/16 11:40:20;;;;;;;14.45;3.35;;;25.90;79.10;;;;;;4995998;28;20042;-75
2023/06/16 11:43:01;;;;;;;18.35;4.70;;;25.90;76.00;;;;;;4995263;28;20069;-77
2023/06/16 11:45:28;;;;;;;5.95;3.10;;;25.80;74.50;;;;;;4996110;28;20070;-75
2023/06/16 11:47:55;;;;;;;6.28;2.88;;;25.80;75.50;;;;;;4996651;28;20044;-74
2023/06/16 11:50:22;;;;;;;8.13;3.40;;;25.80;74.60;;;;;;4996935;28;20494;-75
2023/06/16 11:52:49;;;;;;;5.32;2.90;;;25.90;75.00;;;;;;4996653;28;20075;-76
2023/06/16 11:55:15;;;;;;;7.55;2.97;;;25.80;73.20;;;;;;4997276;28;20147;-76
2023/06/16 11:57:40;;;;;;;5.35;3.05;;;25.80;72.70;;;;;;4996528;28;20050;-77
2023/06/16 12:00:08;;;;;;;5.28;3.00;;;25.90;73.60;;;;;;4995243;28;20390;-75
2023/06/16 12:02:38;;;;;;;7.35;2.95;;;25.90;73.90;;;;;;4994569;28;20050;-76
2023/06/16 12:05:06;;;;;;;11.85;3.53;;;26.10;73.60;;;;;;4995709;28;20042;-75
2023/06/16 12:07:32;;;;;;;6.65;3.10;;;26.10;74.40;;;;;;4994090;28;20038;-75
2023/06/16 12:10:02;;;;;;;6.13;2.83;;;26.20;73.10;;;;;;4994347;28;20064;-76
2023/06/16 12:12:29;;;;;;;5.30;3.20;;;26.00;72.20;;;;;;4993851;28;20046;-76
2023/06/16 12:14:58;;;;;;;4.95;3.10;;;26.00;73.60;;;;;;4994026;28;20530;-76
2023/06/16 12:17:24;;;;;;;4.85;2.92;;;26.20;75.50;;;;;;4993941;28;20042;-77
2023/06/16 12:19:54;;;;;;;5.85;2.90;;;26.30;75.60;;;;;;4993921;28;20046;-77
2023/06/16 12:22:21;;;;;;;8.32;3.22;;;26.40;74.50;;;;;;4995155;28;20084;-77
2023/06/16 12:24:47;;;;;;;5.38;3.10;;;26.40;73.90;;;;;;4993801;28;20046;-77
2023/06/16 12:27:24;;;;;;;7.03;3.33;;;26.40;73.00;;;;;;4993689;28;20121;-77
2023/06/16 12:29:56;;;;;;;7.03;3.05;;;26.40;72.50;;;;;;4995398;28;20058;-77
2023/06/16 12:32:28;;;;;;;7.10;2.95;;;26.30;71.30;;;;;;4993731;28;20061;-77
2023/06/16 12:34:54;;;;;;;7.32;2.97;;;26.40;71.50;;;;;;4995141;28;20107;-77
2023/06/16 12:37:20;;;;;;;9.13;2.80;;;26.50;72.10;;;;;;4994909;28;20077;-75
2023/06/16 12:40:06;;;;;;;5.45;2.80;;;26.60;72.20;;;;;;4993414;28;20553;-77
2023/06/16 12:42:33;;;;;;;5.68;3.00;;;26.60;72.00;;;;;;4995068;28;20446;-77
2023/06/16 12:45:04;;;;;;;4.50;3.17;;;26.40;70.10;;;;;;4993375;28;20042;-78
2023/06/16 12:47:32;;;;;;;5.22;2.90;;;26.40;69.80;;;;;;4993333;28;20053;-76
2023/06/16 12:49:59;;;;;;;4.43;2.72;;;26.40;70.00;;;;;;4993298;28;20118;-77
2023/06/16 12:52:27;;;;;;;5.88;3.00;;;26.60;71.20;;;;;;4994270;28;20117;-78
2023/06/16 12:54:54;;;;;;;6.93;3.08;;;26.60;69.90;;;;;;4994433;28;20076;-78
2023/06/16 12:57:21;;;;;;;7.10;2.80;;;26.60;68.90;;;;;;4994370;28;20362;-76
2023/06/16 12:59:47;;;;;;;5.28;2.88;;;26.60;70.00;;;;;;4994811;28;20045;-78
2023/06/16 13:02:13;;;;;;;4.70;2.65;;;26.60;70.80;;;;;;4994159;28;20034;-76
2023/06/16 13:04:38;;;;;;;5.35;2.80;;;26.70;71.20;;;;;;4992940;28;20042;-77
2023/06/16 13:07:04;;;;;;;4.25;2.97;;;26.70;70.60;;;;;;4994325;28;20158;-76
2023/06/16 13:09:30;;;;;;;6.13;3.20;;;26.70;69.80;;;;;;4993212;28;20042;-77
2023/06/16 13:11:58;;;;;;;4.50;2.92;;;26.40;68.10;;;;;;4976663;28;20437;-76
2023/06/16 13:14:24;;;;;;;7.10;3.15;;;26.20;68.40;;;;;;4994189;28;20397;-77
2023/06/16 13:16:50;;;;;;;5.57;2.97;;;26.30;69.90;;;;;;4992825;28;20121;-76
2023/06/16 13:19:16;;;;;;;6.10;2.83;;;26.40;68.80;;;;;;4993047;28;20085;-76
2023/06/16 13:21:42;;;;;;;5.25;2.85;;;26.40;66.60;;;;;;4992726;28;20487;-77
2023/06/16 13:24:07;;;;;;;5.07;2.78;;;26.40;66.50;;;;;;4993997;28;20146;-77
2023/06/16 13:26:33;;;;;;;5.65;2.85;;;26.60;67.00;;;;;;4992971;28;20383;-77
2023/06/16 13:28:59;;;;;;;6.88;2.80;;;26.60;66.80;;;;;;4993952;28;20504;-77
2023/06/16 13:31:26;;;;;;;4.85;2.70;;;26.70;66.30;;;;;;4994158;28;20091;-78
2023/06/16 13:33:52;;;;;;;4.35;2.80;;;26.70;66.60;;;;;;4994123;28;20462;-75
2023/06/16 13:36:21;;;;;;;5.43;2.53;;;26.80;66.00;;;;;;4992980;28;20144;-77
2023/06/16 13:38:48;;;;;;;5.78;3.00;;;26.60;65.10;;;;;;4976261;28;20053;-77
2023/06/16 13:41:14;;;;;;;6.65;2.60;;;26.70;65.10;;;;;;4993773;28;20038;-76
2023/06/16 13:43:43;;;;;;;5.43;3.05;;;26.80;65.20;;;;;;4993767;28;20050;-78
2023/06/16 13:46:09;;;;;;;3.13;2.38;;;26.90;66.80;;;;;;4994109;28;20096;-75
2023/06/16 13:48:35;;;;;;;6.75;3.00;;;27.00;66.20;;;;;;4992541;28;20078;-77
2023/06/16 13:51:01;;;;;;;5.22;2.97;;;26.80;65.80;;;;;;4976951;28;20042;-76
2023/06/16 13:53:27;;;;;;;7.60;3.00;;;26.80;65.20;;;;;;4992624;28;20121;-76
2023/06/16 13:55:54;;;;;;;4.90;2.97;;;26.80;65.30;;;;;;4993970;28;20062;-78
2023/06/16 13:58:20;;;;;;;6.40;2.70;;;26.80;65.80;;;;;;4992360;28;20085;-75
2023/06/16 14:00:46;;;;;;;4.53;2.60;;;26.90;65.30;;;;;;4997575;28;20038;-77
2023/06/16 14:03:12;;;;;;;6.05;2.47;;;26.80;65.00;;;;;;4996477;28;20081;-76
2023/06/16 14:05:41;;;;;;;6.28;3.13;;;26.90;66.20;;;;;;4997493;28;20081;-77
2023/06/16 14:08:07;;;;;;;4.40;2.70;;;27.00;66.40;;;;;;4996392;28;20045;-77
2023/06/16 14:10:33;;;;;;;5.07;2.55;;;27.00;66.80;;;;;;4997409;28;20046;-77
2023/06/16 14:12:59;;;;;;;4.05;2.75;;;26.80;65.30;;;;;;4996167;28;20050;-77
2023/06/16 14:15:27;;;;;;;3.72;2.60;;;26.80;66.00;;;;;;4997771;28;20070;-76
2023/06/16 14:17:53;;;;;;;4.18;2.83;;;26.80;65.30;;;;;;4980065;28;20061;-77
2023/06/16 14:20:19;;;;;;;4.70;2.70;;;26.90;66.20;;;;;;4996051;28;20054;-77
2023/06/16 14:22:45;;;;;;;6.88;2.67;;;26.90;65.20;;;;;;4997484;28;20069;-76
2023/06/16 14:25:12;;;;;;;6.22;2.60;;;26.90;65.30;;;;;;4996103;28;20122;-79
2023/06/16 14:27:37;;;;;;;8.23;2.60;;;26.90;65.30;;;;;;4995922;28;20117;-78
2023/06/16 14:30:06;;;;;;;5.78;2.50;;;26.80;63.90;;;;;;4996264;28;20165;-77
2023/06/16 14:32:33;;;;;;;8.13;2.70;;;26.70;63.70;;;;;;4995936;28;20034;-78
2023/06/16 14:34:59;;;;;;;6.50;2.70;;;26.70;63.90;;;;;;4997094;28;20046;-77
2023/06/16 14:37:24;;;;;;;5.38;2.30;;;26.60;63.70;;;;;;4995925;28;20157;-77
2023/06/16 14:39:53;;;;;;;4.68;2.80;;;26.50;64.10;;;;;;4995775;28;20046;-77
2023/06/16 14:42:19;;;;;;;4.00;2.75;;;26.50;64.40;;;;;;4996012;28;20046;-76
2023/06/16 14:44:44;;;;;;;4.05;2.60;;;26.50;64.50;;;;;;4995566;28;20125;-76
2023/06/16 14:47:11;;;;;;;5.72;2.50;;;26.50;64.60;;;;;;4995911;28;20038;-77
2023/06/16 14:49:37;;;;;;;5.25;2.85;;;26.50;64.10;;;;;;4995637;28;20117;-78
2023/06/16 14:52:03;;;;;;;4.07;2.67;;;26.50;63.90;;;;;;4979267;28;20120;-77
2023/06/16 14:54:30;;;;;;;5.10;2.58;;;26.50;63.70;;;;;;4996912;28;20502;-78
2023/06/16 14:56:56;;;;;;;4.47;2.55;;;26.50;63.90;;;;;;4995729;28;20104;-78
2023/06/16 14:59:22;;;;;;;6.63;2.90;;;26.40;63.40;;;;;;4995479;28;20490;-79
2023/06/16 15:01:47;;;;;;;5.18;2.80;;;26.50;63.30;;;;;;4995433;28;20057;-76
2023/06/16 15:04:13;;;;;;;5.53;2.78;;;26.40;62.80;;;;;;4996661;28;20097;-77
2023/06/16 15:06:39;;;;;;;7.15;2.50;;;26.50;63.20;;;;;;4995851;28;20093;-81
2023/06/16 15:09:05;;;;;;;6.57;2.83;;;26.50;63.50;;;;;;4996762;28;20049;-77
2023/06/16 15:11:32;;;;;;;3.90;2.55;;;26.30;63.20;;;;;;4995128;28;20100;-77
2023/06/16 15:13:58;;;;;;;5.78;2.45;;;26.40;63.50;;;;;;4996513;28;20405;-76
2023/06/16 15:16:28;;;;;;;5.13;2.83;;;26.40;62.80;;;;;;4996565;28;20061;-76
2023/06/16 15:18:55;;;;;;;4.18;2.60;;;26.40;63.70;;;;;;4996265;28;20116;-78
2023/06/16 15:21:21;;;;;;;5.28;2.50;;;26.30;62.90;;;;;;4995133;28;20054;-78
2023/06/16 15:23:48;;;;;;;5.32;2.80;;;26.40;62.90;;;;;;4996353;28;20487;-77
2023/06/16 15:26:14;;;;;;;3.47;2.30;;;26.50;63.60;;;;;;4996667;28;20042;-77
2023/06/16 15:28:40;;;;;;;4.20;2.40;;;26.50;63.40;;;;;;4994766;28;20076;-76
2023/06/16 15:31:05;;;;;;;4.28;2.80;;;26.40;62.50;;;;;;4994626;28;20142;-75
2023/06/16 15:33:33;;;;;;;6.57;2.60;;;26.40;62.60;;;;;;4995066;28;20045;-77
2023/06/16 15:36:03;;;;;;;4.00;2.70;;;26.30;62.60;;;;;;4994814;28;20046;-77
2023/06/16 15:38:29;;;;;;;4.53;2.80;;;26.30;62.70;;;;;;4994960;28;20042;-76